createdAt,value
2022-10-12T00:00:06.419Z,3.77
2022-10-12T00:02:33.731Z,3.93
2022-10-12T00:05:00.713Z,2.93
2022-10-12T00:07:27.705Z,4.40
2022-10-12T00:09:54.683Z,3.00
2022-10-12T00:12:21.683Z,3.00
2022-10-12T00:14:48.787Z,4.53
2022-10-12T00:17:15.839Z,3.37
2022-10-12T00:19:42.944Z,3.33
2022-10-12T00:22:10.125Z,3.67
2022-10-12T00:24:40.639Z,3.13
2022-10-12T00:27:09.975Z,3.43
2022-10-12T00:29:37.129Z,4.00
2022-10-12T00:32:04.266Z,3.40
2022-10-12T00:34:31.679Z,3.00
2022-10-12T00:36:58.681Z,3.27
2022-10-12T00:39:25.682Z,3.00
2022-10-12T00:41:52.824Z,3.27
2022-10-12T00:44:34.425Z,3.57
2022-10-12T00:47:30.811Z,5.17
2022-10-12T00:50:01.730Z,4.87
2022-10-12T00:52:37.500Z,3.87
2022-10-12T00:55:06.541Z,2.67
2022-10-12T00:57:34.132Z,4.40
2022-10-12T01:00:06.801Z,2.83
2022-10-12T01:02:36.049Z,4.07
2022-10-12T01:05:04.134Z,3.30
2022-10-12T01:07:31.138Z,3.53
2022-10-12T01:09:58.128Z,4.30
2022-10-12T01:12:26.973Z,3.23
2022-10-12T01:14:54.283Z,3.00
2022-10-12T01:17:53.545Z,3.73
2022-10-12T01:20:57.544Z,3.83
2022-10-12T01:23:43.400Z,2.97
2022-10-12T01:26:39.124Z,3.67
2022-10-12T01:29:33.631Z,3.57
2022-10-12T01:32:15.431Z,4.43
2022-10-12T01:34:48.127Z,3.07
2022-10-12T01:37:34.003Z,4.10
2022-10-12T01:40:07.731Z,5.30
2022-10-12T01:42:39.823Z,2.97
2022-10-12T01:45:16.197Z,3.70
2022-10-12T01:47:48.628Z,2.70
2022-10-12T01:50:17.625Z,2.70
2022-10-12T01:53:07.276Z,3.13
2022-10-12T01:55:43.955Z,3.03
2022-10-12T01:58:29.468Z,3.63
2022-10-12T02:01:07.304Z,2.80
2022-10-12T02:03:46.494Z,4.03
2022-10-12T02:06:28.693Z,2.80
2022-10-12T02:09:20.757Z,2.30
2022-10-12T02:11:52.317Z,2.70
2022-10-12T02:14:27.424Z,2.90
2022-10-12T02:16:59.724Z,3.93
2022-10-12T02:19:30.449Z,5.93
2022-10-12T02:22:02.071Z,6.37
2022-10-12T02:24:31.570Z,8.03
2022-10-12T02:27:01.254Z,9.57
2022-10-12T02:29:38.226Z,5.80
2022-10-12T02:32:18.046Z,5.30
2022-10-12T02:34:55.516Z,4.70
2022-10-12T02:37:34.774Z,3.80
2022-10-12T02:40:34.897Z,3.37
2022-10-12T02:43:11.763Z,3.10
2022-10-12T02:45:43.940Z,4.37
2022-10-12T02:48:16.027Z,3.37
2022-10-12T02:50:45.016Z,3.27
2022-10-12T02:53:12.894Z,4.77
2022-10-12T02:55:51.448Z,3.03
2022-10-12T02:58:19.437Z,3.10
2022-10-12T03:00:49.928Z,3.60
2022-10-12T03:03:21.252Z,3.50
2022-10-12T03:05:48.313Z,4.33
2022-10-12T03:08:15.405Z,4.40
2022-10-12T03:10:45.177Z,2.77
2022-10-12T03:13:12.195Z,3.00
2022-10-12T03:15:41.611Z,3.17
2022-10-12T03:18:09.055Z,2.80
2022-10-12T03:20:44.274Z,2.93
2022-10-12T03:23:11.292Z,3.10
2022-10-12T03:25:38.313Z,2.50
2022-10-12T03:28:05.544Z,2.90
2022-10-12T03:30:32.896Z,3.63
2022-10-12T03:33:16.907Z,2.63
2022-10-12T03:35:45.455Z,2.40
2022-10-12T03:38:15.937Z,2.30
2022-10-12T03:40:43.430Z,2.33
2022-10-12T03:43:11.145Z,2.93
2022-10-12T03:45:38.252Z,5.60
2022-10-12T03:48:06.894Z,4.30
2022-10-12T03:50:35.107Z,3.20
2022-10-12T03:53:04.305Z,4.40
2022-10-12T03:55:31.830Z,3.37
2022-10-12T03:57:59.250Z,15.47
2022-10-12T04:00:37.192Z,13.73
2022-10-12T04:03:04.767Z,14.77
2022-10-12T04:05:37.993Z,8.53
2022-10-12T04:08:05.250Z,7.97
2022-10-12T04:10:32.320Z,9.63
2022-10-12T04:12:59.336Z,6.47
2022-10-12T04:15:26.342Z,5.93
2022-10-12T04:17:56.475Z,5.27
2022-10-12T04:20:23.521Z,4.50
2022-10-12T04:22:51.874Z,4.30
2022-10-12T04:25:19.368Z,3.97
2022-10-12T04:27:46.433Z,3.33
2022-10-12T04:30:13.703Z,3.70
2022-10-12T04:32:43.355Z,4.30
2022-10-12T04:35:10.830Z,5.67
2022-10-12T04:37:38.307Z,5.30
2022-10-12T04:40:08.689Z,12.63
2022-10-12T04:42:35.658Z,10.77
2022-10-12T04:45:04.954Z,9.73
2022-10-12T04:47:35.233Z,9.87
2022-10-12T04:50:02.596Z,7.60
2022-10-12T04:52:31.990Z,6.80
2022-10-12T04:55:01.113Z,4.40
2022-10-12T04:57:33.084Z,3.50
2022-10-12T05:00:00.254Z,3.30
2022-10-12T05:02:27.931Z,5.23
2022-10-12T05:04:58.141Z,3.67
2022-10-12T05:07:25.241Z,9.97
2022-10-12T05:09:57.843Z,4.93
2022-10-12T05:12:24.961Z,4.47
2022-10-12T05:14:51.936Z,9.57
2022-10-12T05:17:23.845Z,5.80
2022-10-12T05:19:50.816Z,3.20
2022-10-12T05:22:17.985Z,6.90
2022-10-12T05:24:47.090Z,3.77
2022-10-12T05:27:15.932Z,8.43
2022-10-12T05:29:48.519Z,3.83
2022-10-12T05:32:15.740Z,3.80
2022-10-12T05:34:48.051Z,3.40
2022-10-12T05:37:15.422Z,8.23
2022-10-12T05:39:42.629Z,7.23
2022-10-12T05:42:12.671Z,8.37
2022-10-12T05:44:39.872Z,7.20
2022-10-12T05:47:07.004Z,7.40
2022-10-12T05:49:35.682Z,7.33
2022-10-12T05:52:02.797Z,6.53
2022-10-12T05:54:30.009Z,4.83
2022-10-12T05:56:59.579Z,3.53
2022-10-12T05:59:26.604Z,5.33
2022-10-12T06:01:53.800Z,4.30
2022-10-12T06:04:26.670Z,3.90
2022-10-12T06:06:53.677Z,4.03
2022-10-12T06:09:25.597Z,5.10
2022-10-12T06:11:54.951Z,4.83
2022-10-12T06:14:24.797Z,6.43
2022-10-12T06:16:54.455Z,5.83
2022-10-12T06:19:26.791Z,6.73
2022-10-12T06:21:53.841Z,4.33
2022-10-12T06:24:20.905Z,3.50
2022-10-12T06:26:51.188Z,7.23
2022-10-12T06:29:18.324Z,3.70
2022-10-12T06:31:50.496Z,5.10
2022-10-12T06:34:18.674Z,5.80
2022-10-12T06:36:45.645Z,4.80
2022-10-12T06:39:13.165Z,4.70
2022-10-12T06:41:58.581Z,6.73
2022-10-12T06:44:25.599Z,4.53
2022-10-12T06:46:52.688Z,4.93
2022-10-12T06:49:19.730Z,7.60
2022-10-12T06:51:46.770Z,8.33
2022-10-12T06:54:22.087Z,8.20
2022-10-12T06:56:49.126Z,9.20
2022-10-12T06:59:16.174Z,10.07
2022-10-12T07:01:46.141Z,8.47
2022-10-12T07:04:13.271Z,8.90
2022-10-12T07:06:46.288Z,9.37
2022-10-12T07:09:13.386Z,8.37
2022-10-12T07:11:40.579Z,8.57
2022-10-12T07:14:09.949Z,9.07
2022-10-12T07:16:37.018Z,7.60
2022-10-12T07:19:04.044Z,7.27
2022-10-12T07:21:33.594Z,8.57
2022-10-12T07:24:00.573Z,5.20
2022-10-12T07:26:27.651Z,7.07
2022-10-12T07:29:03.574Z,4.93
2022-10-12T07:31:36.234Z,5.23
2022-10-12T07:34:03.519Z,5.60
2022-10-12T07:36:57.529Z,4.73
2022-10-12T07:39:19.591Z,7.50
2022-10-12T07:41:46.816Z,5.30
2022-10-12T07:44:13.971Z,5.90
2022-10-12T07:46:43.625Z,5.60
2022-10-12T07:49:12.207Z,5.23
2022-10-12T07:51:48.608Z,5.37
2022-10-12T07:54:20.979Z,4.83
2022-10-12T07:56:48.500Z,6.03
2022-10-12T07:59:15.698Z,5.57
2022-10-12T08:01:50.017Z,5.20
2022-10-12T08:04:17.202Z,7.50
2022-10-12T08:06:44.261Z,6.90
2022-10-12T08:09:20.238Z,7.13
2022-10-12T08:11:47.708Z,7.00
2022-10-12T08:14:16.559Z,6.20
2022-10-12T08:16:44.640Z,4.50
2022-10-12T08:19:19.597Z,4.90
2022-10-12T08:21:46.857Z,5.70
2022-10-12T08:24:18.220Z,5.90
2022-10-12T08:26:45.375Z,5.73
2022-10-12T08:29:12.472Z,5.17
2022-10-12T08:31:42.515Z,4.23
2022-10-12T08:34:10.070Z,5.40
2022-10-12T08:36:42.636Z,5.80
2022-10-12T08:39:09.718Z,4.43
2022-10-12T08:42:04.574Z,5.03
2022-10-12T08:44:38.316Z,4.30
2022-10-12T08:47:40.689Z,4.33
2022-10-12T08:51:11.127Z,4.10
2022-10-12T08:54:02.916Z,4.72
2022-10-12T08:56:35.892Z,4.00
2022-10-12T08:59:03.703Z,4.28
2022-10-12T09:01:56.155Z,3.88
2022-10-12T09:04:38.516Z,4.38
2022-10-12T09:07:25.756Z,6.03
2022-10-12T09:10:23.595Z,5.10
2022-10-12T09:13:09.426Z,5.10
2022-10-12T09:16:02.976Z,4.35
2022-10-12T09:18:34.106Z,4.00
2022-10-12T09:21:08.984Z,3.65
2022-10-12T09:23:48.949Z,3.75
2022-10-12T09:26:36.545Z,4.40
2022-10-12T09:29:26.723Z,3.47
2022-10-12T09:32:18.152Z,3.25
2022-10-12T09:34:46.335Z,3.70
2022-10-12T09:37:27.051Z,3.42
2022-10-12T09:39:55.455Z,3.40
2022-10-12T09:42:22.868Z,3.20
2022-10-12T09:44:57.310Z,3.15
2022-10-12T09:47:33.065Z,2.97
2022-10-12T09:50:02.899Z,2.50
2022-10-12T09:52:36.460Z,2.97
2022-10-12T09:55:07.930Z,2.28
2022-10-12T09:57:40.869Z,2.70
2022-10-12T10:00:28.439Z,2.28
2022-10-12T10:02:59.962Z,2.60
2022-10-12T10:05:34.540Z,2.50
2022-10-12T10:08:24.577Z,2.38
2022-10-12T10:11:01.861Z,2.50
2022-10-12T10:13:31.732Z,2.50
2022-10-12T10:16:24.522Z,7.22
2022-10-12T10:19:06.686Z,2.13
2022-10-12T10:21:36.205Z,2.30
2022-10-12T10:24:18.746Z,2.40
2022-10-12T10:27:09.319Z,2.25
2022-10-12T10:29:41.638Z,2.45
2022-10-12T10:32:30.036Z,2.30
2022-10-12T10:35:19.019Z,2.65
2022-10-12T10:37:56.964Z,2.50
2022-10-12T10:40:33.793Z,4.70
2022-10-12T10:43:06.831Z,7.38
2022-10-12T10:45:59.924Z,2.50
2022-10-12T10:48:53.532Z,2.50
2022-10-12T10:51:23.105Z,2.47
2022-10-12T10:53:52.064Z,2.22
2022-10-12T10:56:31.282Z,2.42
2022-10-12T10:59:18.831Z,2.13
2022-10-12T11:01:54.644Z,2.45
2022-10-12T11:04:39.685Z,2.40
2022-10-12T11:07:22.271Z,2.15
2022-10-12T11:09:54.923Z,2.40
2022-10-12T11:12:36.606Z,2.40
2022-10-12T11:15:20.676Z,4.13
2022-10-12T11:17:52.308Z,2.55
2022-10-12T11:20:37.380Z,2.25
2022-10-12T11:23:13.543Z,2.38
2022-10-12T11:25:51.452Z,3.67
2022-10-12T11:28:18.832Z,2.05
2022-10-12T11:30:54.466Z,2.30
2022-10-12T11:33:43.207Z,2.20
2022-10-12T11:36:19.581Z,2.40
2022-10-12T11:39:03.113Z,2.20
2022-10-12T11:42:09.816Z,2.50
2022-10-12T11:44:49.485Z,2.25
2022-10-12T11:47:47.274Z,2.50
2022-10-12T11:50:40.457Z,4.82
2022-10-12T11:53:34.752Z,2.50
2022-10-12T11:56:06.999Z,2.30
2022-10-12T11:59:00.571Z,5.45
2022-10-12T12:01:57.607Z,2.53
2022-10-12T12:04:44.151Z,2.60
2022-10-12T12:07:41.659Z,2.80
2022-10-12T12:10:32.172Z,2.10
2022-10-12T12:13:13.023Z,2.45
2022-10-12T12:15:43.261Z,2.33
2022-10-12T12:18:18.642Z,2.50
2022-10-12T12:20:46.636Z,2.33
2022-10-12T12:23:43.403Z,2.10
2022-10-12T12:26:15.642Z,2.40
2022-10-12T12:28:47.603Z,2.28
2022-10-12T12:31:22.162Z,2.22
2022-10-12T12:34:01.088Z,2.20
2022-10-12T12:36:33.203Z,2.55
2022-10-12T12:39:04.644Z,2.67
2022-10-12T12:42:05.253Z,2.55
2022-10-12T12:44:43.110Z,2.38
2022-10-12T12:50:08.336Z,2.38
2022-10-12T12:52:39.858Z,2.30
2022-10-12T12:55:14.212Z,2.08
2022-10-12T12:58:00.508Z,2.20
2022-10-12T13:00:38.136Z,2.50
2022-10-12T13:03:33.896Z,2.03
2022-10-12T13:06:19.154Z,2.47
2022-10-12T13:09:16.265Z,2.30
2022-10-12T13:12:03.439Z,2.33
2022-10-12T13:14:59.149Z,2.10
2022-10-12T13:17:57.812Z,2.42
2022-10-12T13:20:44.664Z,2.20
2022-10-12T13:23:21.629Z,2.17
2022-10-12T13:25:56.970Z,2.35
2022-10-12T13:28:43.300Z,2.20
2022-10-12T13:31:32.446Z,2.60
2022-10-12T13:34:15.822Z,2.30
2022-10-12T13:37:11.533Z,2.20
2022-10-12T13:39:47.207Z,2.63
2022-10-12T13:42:27.787Z,2.30
2022-10-12T13:44:54.985Z,2.30
2022-10-12T13:47:29.619Z,2.10
2022-10-12T13:50:00.326Z,2.30
2022-10-12T13:52:32.358Z,2.10
2022-10-12T13:55:01.037Z,2.50
2022-10-12T13:57:37.096Z,2.25
2022-10-12T14:00:14.670Z,2.33
2022-10-12T14:02:44.134Z,2.53
2022-10-12T14:05:23.807Z,2.17
2022-10-12T14:07:53.428Z,2.60
2022-10-12T14:10:25.026Z,2.30
2022-10-12T14:12:53.684Z,2.37
2022-10-12T14:15:23.609Z,2.33
2022-10-12T14:17:50.979Z,2.00
2022-10-12T14:20:39.247Z,2.73
2022-10-12T14:23:21.675Z,2.50
2022-10-12T14:25:56.495Z,2.17
2022-10-12T14:28:35.514Z,2.10
2022-10-12T14:31:02.883Z,2.67
2022-10-12T14:33:31.887Z,2.30
2022-10-12T14:36:29.619Z,2.10
2022-10-12T14:39:13.106Z,2.80
2022-10-12T14:41:49.007Z,2.40
2022-10-12T14:44:18.706Z,2.40
2022-10-12T14:47:10.718Z,2.77
2022-10-12T14:49:40.172Z,2.60
2022-10-12T14:52:15.566Z,2.20
2022-10-12T14:54:43.260Z,2.40
2022-10-12T14:57:14.506Z,2.03
2022-10-12T14:59:42.046Z,2.53
2022-10-12T15:02:18.743Z,2.50
2022-10-12T15:04:46.494Z,2.50
2022-10-12T15:07:25.443Z,2.80
2022-10-12T15:09:53.265Z,2.47
2022-10-12T15:12:22.733Z,3.00
2022-10-12T15:14:51.578Z,2.40
2022-10-12T15:17:20.065Z,2.70
2022-10-12T15:19:48.739Z,3.03
2022-10-12T15:22:26.532Z,2.37
2022-10-12T15:24:55.204Z,2.73
2022-10-12T15:27:22.365Z,2.60
2022-10-12T15:29:49.642Z,2.23
2022-10-12T15:32:19.019Z,2.60
2022-10-12T15:34:46.268Z,2.40
2022-10-12T15:37:13.531Z,3.53
2022-10-12T15:39:41.619Z,2.83
2022-10-12T15:42:15.178Z,2.97
2022-10-12T15:44:42.429Z,2.90
2022-10-12T15:47:11.289Z,2.63
2022-10-12T15:49:38.809Z,2.50
2022-10-12T15:52:06.597Z,2.67
2022-10-12T15:54:33.946Z,2.67
2022-10-12T15:57:00.912Z,2.80
2022-10-12T15:59:28.379Z,3.20
2022-10-12T16:01:55.447Z,3.17
2022-10-12T16:04:22.623Z,4.10
2022-10-12T16:06:49.740Z,4.57
2022-10-12T16:09:18.111Z,5.93
2022-10-12T16:11:46.357Z,4.10
2022-10-12T16:14:14.471Z,4.10
2022-10-12T16:16:41.625Z,3.70
2022-10-12T16:19:08.677Z,3.27
2022-10-12T16:21:35.691Z,5.03
2022-10-12T16:24:09.669Z,4.13
2022-10-12T16:26:49.887Z,3.40
2022-10-12T16:29:16.928Z,4.90
2022-10-12T16:31:43.932Z,3.70
2022-10-12T16:34:10.976Z,3.40
2022-10-12T16:36:45.926Z,3.80
2022-10-12T16:39:20.773Z,4.23
2022-10-12T16:42:01.367Z,3.37
2022-10-12T16:44:28.515Z,3.70
2022-10-12T16:46:55.810Z,3.97
2022-10-12T16:49:22.976Z,5.37
2022-10-12T16:51:50.030Z,4.83
2022-10-12T16:54:17.102Z,4.00
2022-10-12T16:56:44.164Z,4.27
2022-10-12T16:59:11.503Z,5.20
2022-10-12T17:01:38.988Z,4.97
2022-10-12T17:04:06.032Z,4.87
2022-10-12T17:06:33.119Z,4.23
2022-10-12T17:09:00.560Z,3.93
2022-10-12T17:11:27.570Z,3.93
2022-10-12T17:13:56.140Z,4.30
2022-10-12T17:16:41.623Z,4.13
2022-10-12T17:19:10.238Z,4.07
2022-10-12T17:21:41.950Z,4.40
2022-10-12T17:24:12.275Z,5.30
2022-10-12T17:26:41.086Z,4.10
2022-10-12T17:29:11.185Z,5.37
2022-10-12T17:31:38.291Z,4.90
2022-10-12T17:37:53.243Z,5.17
2022-10-12T17:40:20.403Z,4.50
2022-10-12T17:42:47.418Z,4.07
2022-10-12T17:45:14.575Z,4.63
2022-10-12T17:47:42.165Z,5.50
2022-10-12T17:50:09.398Z,7.60
2022-10-12T17:52:39.613Z,6.47
2022-10-12T17:55:09.416Z,7.90
2022-10-12T17:57:42.246Z,7.57
2022-10-12T18:00:10.126Z,7.07
2022-10-12T18:02:37.379Z,7.53
2022-10-12T18:05:04.785Z,9.23
2022-10-12T18:07:31.836Z,9.33
2022-10-12T18:12:31.828Z,12.43
2022-10-12T18:14:58.916Z,10.43
2022-10-12T18:17:26.345Z,13.00
2022-10-12T18:19:53.399Z,10.07
2022-10-12T18:22:20.593Z,9.67
2022-10-12T18:24:48.970Z,9.80
2022-10-12T18:27:16.218Z,12.40
2022-10-12T18:29:49.199Z,12.17
2022-10-12T18:32:16.684Z,11.03
2022-10-12T18:34:44.356Z,8.67
2022-10-12T18:37:11.349Z,10.20
2022-10-12T18:39:40.158Z,9.50
2022-10-12T18:42:07.323Z,9.70
2022-10-12T18:44:34.290Z,13.50
2022-10-12T18:47:02.901Z,11.30
2022-10-12T18:49:29.865Z,11.73
2022-10-12T18:51:56.928Z,10.00
2022-10-12T18:54:24.562Z,9.10
2022-10-12T18:56:51.599Z,9.10
2022-10-12T18:59:19.805Z,8.70
2022-10-12T19:01:47.543Z,8.23
2022-10-12T19:04:14.785Z,7.97
2022-10-12T19:06:42.812Z,9.50
2022-10-12T19:09:13.352Z,9.10
2022-10-12T19:11:40.754Z,17.47
2022-10-12T19:14:10.804Z,16.90
2022-10-12T19:16:37.967Z,12.07
2022-10-12T19:19:07.571Z,12.63
2022-10-12T19:21:35.111Z,9.30
2022-10-12T19:24:05.588Z,8.60
2022-10-12T19:26:33.476Z,9.40
2022-10-12T19:29:01.294Z,9.20
2022-10-12T19:31:31.424Z,10.37
2022-10-12T19:34:01.388Z,11.13
2022-10-12T19:36:29.349Z,10.13
2022-10-12T19:38:58.319Z,9.73
2022-10-12T19:41:26.818Z,10.23
2022-10-12T19:43:54.246Z,12.53
2022-10-12T19:46:21.584Z,12.23
2022-10-12T19:48:50.368Z,9.97
2022-10-12T19:51:19.332Z,11.03
2022-10-12T19:53:48.109Z,8.47
2022-10-12T19:56:17.612Z,7.80
2022-10-12T19:58:45.904Z,9.10
2022-10-12T20:01:16.526Z,7.77
2022-10-12T20:03:47.785Z,8.77
2022-10-12T20:06:19.916Z,7.50
2022-10-12T20:08:47.121Z,9.20
2022-10-12T20:11:19.060Z,7.70
2022-10-12T20:13:49.254Z,7.90
2022-10-12T20:16:18.176Z,7.60
2022-10-12T20:18:45.953Z,8.00
2022-10-12T20:21:15.959Z,8.93
2022-10-12T20:23:43.708Z,8.17
2022-10-12T20:26:23.128Z,9.60
2022-10-12T20:28:51.342Z,10.83
2022-10-12T20:31:21.471Z,8.17
2022-10-12T20:33:52.075Z,7.77
2022-10-12T20:36:25.168Z,7.83
2022-10-12T20:38:52.455Z,9.57
2022-10-12T20:41:21.614Z,7.97
2022-10-12T20:43:48.984Z,6.83
2022-10-12T20:46:18.521Z,8.23
2022-10-12T20:48:46.339Z,8.77
2022-10-12T20:51:20.363Z,7.50
2022-10-12T20:53:47.626Z,8.63
2022-10-12T20:56:14.722Z,9.07
2022-10-12T20:58:41.892Z,8.37
2022-10-12T21:01:12.062Z,9.20
2022-10-12T21:03:39.888Z,8.60
2022-10-12T21:06:09.619Z,8.37
2022-10-12T21:08:36.976Z,8.90
2022-10-12T21:11:05.219Z,10.97
2022-10-12T21:13:34.398Z,10.37
2022-10-12T21:16:01.983Z,7.77
2022-10-12T21:18:34.134Z,10.77
2022-10-12T21:21:19.093Z,8.80
2022-10-12T21:23:54.293Z,11.87
2022-10-12T21:26:22.805Z,8.27
2022-10-12T21:28:51.045Z,8.57
2022-10-12T21:31:19.088Z,7.87
2022-10-12T21:33:46.355Z,10.13
2022-10-12T21:36:24.051Z,10.03
2022-10-12T21:38:51.448Z,12.00
2022-10-12T21:41:24.485Z,11.43
2022-10-12T21:43:52.631Z,13.77
2022-10-12T21:46:25.787Z,11.40
2022-10-12T21:48:53.687Z,12.83
2022-10-12T21:51:22.212Z,12.67
2022-10-12T21:53:50.556Z,8.70
2022-10-12T21:56:29.620Z,12.20
2022-10-12T21:58:58.711Z,10.40
2022-10-12T22:01:34.592Z,8.17
2022-10-12T22:04:20.718Z,10.73
2022-10-12T22:06:47.751Z,8.67
2022-10-12T22:09:16.986Z,10.40
2022-10-12T22:11:47.000Z,10.00
2022-10-12T22:14:16.828Z,10.90
2022-10-12T22:16:46.903Z,9.03
2022-10-12T22:19:19.761Z,10.73
2022-10-12T22:21:49.054Z,8.43
2022-10-12T22:24:18.716Z,9.57
2022-10-12T22:26:46.031Z,6.90
2022-10-12T22:29:13.161Z,7.10
2022-10-12T22:31:41.075Z,8.30
2022-10-12T22:34:08.447Z,9.60
2022-10-12T22:36:35.475Z,7.67
2022-10-12T22:39:03.453Z,7.70
2022-10-12T22:41:30.521Z,8.57
2022-10-12T22:43:57.526Z,9.17
2022-10-12T22:46:25.843Z,11.17
2022-10-12T22:48:53.481Z,9.47
2022-10-12T22:51:43.203Z,9.97
2022-10-12T22:54:11.033Z,12.07
2022-10-12T22:56:37.910Z,9.47
2022-10-12T22:59:08.480Z,7.57
2022-10-12T23:01:36.146Z,8.00
2022-10-12T23:04:03.407Z,8.50
2022-10-12T23:06:30.616Z,8.93
2022-10-12T23:08:58.189Z,11.13
2022-10-12T23:11:27.536Z,9.10
2022-10-12T23:13:56.433Z,6.97
2022-10-12T23:16:29.324Z,9.30
2022-10-12T23:18:59.773Z,7.67
2022-10-12T23:21:28.909Z,10.37
2022-10-12T23:23:56.443Z,8.53
2022-10-12T23:26:25.510Z,6.73
2022-10-12T23:28:53.448Z,7.23
2022-10-12T23:31:23.416Z,7.70
2022-10-12T23:33:55.975Z,7.13
2022-10-12T23:36:23.490Z,6.60
2022-10-12T23:38:50.687Z,9.60
2022-10-12T23:41:18.101Z,7.47
2022-10-12T23:43:45.292Z,7.00
2022-10-12T23:46:13.010Z,9.00
2022-10-12T23:48:40.594Z,7.53
2022-10-12T23:51:09.087Z,9.23
2022-10-12T23:53:37.854Z,11.83
2022-10-12T23:56:06.193Z,9.63
2022-10-12T23:58:33.916Z,8.37
